Main page
METAR-TAF:

METAR-TAF

Airports :

Altenstadt Air Base

Altenstadt, Germany

latitude: 47-50N, longitude: 010-52E, elevation: 739 m

Current weather observation

The report was made 14 minutes ago, at 13:20 UTC
Wind 2 kt from the Northeast
Temperature 3°C
Humidity 100%
Pressure 1025 hPa
Visibility: 1500 m
Overcast at a height of 100 ft
light drizzle, mist

METAR: ETHA 151320Z 05002KT 1500 -DZ BR OVC001 03/03 Q1025 RED RED TEMPO YLO

Time: 14:34 (13:34 UTC)

Forecast

The report was made 2 hours and 14 minutes ago, at 11:20 UTC
Forecast valid from 15 at 12 UTC to 15 at 21 UTC
Wind 3 kt from the East/Northeast
Visibility: 0300 m
at a height of 100 ft
fog
Temporary
from 15 at 12 UTC to 15 at 15 UTC
Wind 5 kt from the East/Northeast
Visibility: 2000 m
Broken clouds at a height of 300 ft
mist

TAF: ETHA 151120Z 1512/1521 07003KT 0300 FG VV001 TEMPO 1512/1515 07005KT 2000 BR BKN003

Weather observations and forecasts of more than 4000 airports (METAR and TAF reports).

The available stations are represented by yellow and red dots on the map.

Hover mouse over dot to see the name of the station.

Then click to see weather observations and forecasts.

To change the map : click on the green buttons with a black cross to zoom in, on the green button with a dash to zoom out, or on the green arrows for adjacent maps.


METAR-TAF: